GMT,Max TemperatureF,Mean TemperatureF,Min TemperatureF,Max Dew PointF,MeanDew PointF,Min DewpointF,Max Humidity, Mean Humidity, Min Humidity, Max Sea Level PressureIn, Mean Sea Level PressureIn, Min Sea Level PressureIn, Max VisibilityMiles, Mean VisibilityMiles, Min VisibilityMiles, Max Wind SpeedMPH, Mean Wind SpeedMPH, Max Gust SpeedMPH,PrecipitationIn, CloudCover, Events, WindDirDegrees
2012-10-1,57,52,48,48,47,43,94,83,55,29.78,29.70,29.62,19,7,6,25,13,37,0.04,4,Rain,234
2012-10-2,58,52,46,48,45,43,88,79,57,29.70,29.53,29.39,6,6,6,25,15,36,0.02,3,Rain,230
2012-10-3,53,48,43,48,43,41,93,86,71,29.59,29.52,29.47,19,7,6,26,16,,0.12,3,Rain,243
2012-10-4,55,48,42,46,44,43,100,87,63,29.73,29.64,29.53,19,6,2,23,10,37,0.04,6,Rain,242
2012-10-5,53,48,43,45,44,41,93,84,66,29.80,29.66,29.53,6,6,6,22,13,,0.00,5,Rain,252
2012-10-6,56,47,38,48,43,37,100,89,67,30.09,29.94,29.80,19,6,3,14,9,,0.00,3,,290
2012-10-7,54,44,33,46,41,34,100,85,60,30.21,30.15,30.09,19,7,6,13,6,,0.00,5,,60
2012-10-8,53,49,44,50,47,43,100,87,73,30.09,30.00,29.95,19,7,6,18,10,,0.01,6,Rain,61
2012-10-9,54,45,36,50,43,37,100,91,76,30.04,30.01,29.98,19,7,4,13,7,17,0.00,3,,27
2012-10-10,57,46,35,55,48,36,100,95,87,30.01,29.87,29.68,9,5,1,17,6,,0.00,6,Fog-Rain,129
2012-10-11,55,50,44,55,50,41,100,93,79,29.68,29.57,29.47,19,5,2,21,14,32,0.35,6,Rain,223
2012-10-12,53,45,37,43,40,37,100,84,58,29.71,29.67,29.65,19,7,6,18,14,,0.04,3,,260
2012-10-13,52,44,35,45,39,36,100,89,62,29.70,29.66,29.62,19,6,1,14,11,,0.00,2,Fog-Rain,266
2012-10-14,50,44,39,48,43,39,100,94,87,29.65,29.62,29.59,19,6,3,15,9,,0.16,6,Fog-Rain,272
2012-10-15,49,44,40,48,43,41,100,96,82,29.65,29.49,29.21,16,4,0,12,8,,0.01,5,Fog-Rain,264
2012-10-16,53,47,41,45,41,37,93,82,58,29.50,29.37,29.12,12,6,6,28,16,37,0.00,5,Rain,242
2012-10-17,55,48,40,48,46,43,94,84,67,29.39,29.14,29.06,16,6,3,24,13,36,0.12,5,Rain,153
2012-10-18,56,49,41,50,47,41,100,85,59,29.56,29.29,29.12,16,7,6,18,11,,0.16,4,Fog-Rain,139
2012-10-19,54,46,37,50,47,39,100,95,82,29.77,29.69,29.56,19,5,0,8,4,,0.00,6,Fog-Rain,281
2012-10-20,58,52,44,48,46,43,100,83,57,30.01,29.89,29.77,11,6,6,14,6,,0.00,6,Rain,212
2012-10-21,56,47,38,52,46,37,100,91,72,30.12,30.06,30.01,19,6,4,14,7,,0.00,3,Fog,127
2012-10-22,57,48,40,52,48,41,100,93,74,30.27,30.18,30.12,11,6,3,9,6,,0.00,6,Fog,71
2012-10-23,54,52,51,54,52,50,100,97,88,30.34,30.30,30.24,11,4,0,14,9,,0.04,7,Fog-Rain,44
2012-10-24,54,52,51,54,52,51,100,96,92,30.30,30.19,30.12,9,6,2,17,13,,0.01,6,Rain,41
2012-10-25,53,50,48,52,48,41,94,87,76,30.14,30.08,30.06,14,6,5,21,15,32,0.00,6,Rain,64
2012-10-26,46,40,35,41,35,25,93,76,46,30.15,30.10,30.09,19,7,6,22,16,32,0.04,5,Rain,31
2012-10-27,46,38,31,37,32,28,87,76,54,30.34,30.25,30.15,19,7,6,18,13,,0.00,3,Rain,302
2012-10-28,46,44,42,45,43,37,100,90,69,30.15,29.86,29.65,19,7,6,22,18,31,0.08,6,Rain,246
2012-10-29,50,44,37,45,41,36,100,93,76,29.86,29.77,29.65,19,5,0,12,8,,0.00,5,Fog,299
2012-10-30,48,42,36,43,40,36,100,86,76,29.85,29.58,29.21,19,7,4,21,14,31,0.00,6,,246
2012-10-31,47,42,37,43,39,34,93,87,72,29.22,28.92,28.80,19,6,3,22,16,34,0.12,5,Rain,235